createdAt,value
2018-06-12T00:02:12.900Z,19.00
2018-06-12T00:04:41.158Z,19.00
2018-06-12T00:07:09.404Z,19.00
2018-06-12T00:09:37.628Z,19.00
2018-06-12T00:12:05.880Z,19.10
2018-06-12T00:14:34.114Z,18.90
2018-06-12T00:17:02.363Z,18.90
2018-06-12T00:19:30.607Z,18.90
2018-06-12T00:21:58.904Z,19.00
2018-06-12T00:24:27.126Z,18.90
2018-06-12T00:26:55.678Z,19.00
2018-06-12T00:29:23.923Z,19.00
2018-06-12T00:31:52.177Z,18.90
2018-06-12T00:34:20.465Z,18.80
2018-06-12T00:36:48.672Z,18.80
2018-06-12T00:39:16.991Z,18.80
2018-06-12T00:41:45.227Z,18.90
2018-06-12T00:44:13.532Z,18.90
2018-06-12T00:46:41.691Z,18.90
2018-06-12T00:49:09.961Z,19.00
2018-06-12T00:51:38.242Z,19.00
2018-06-12T00:54:06.459Z,19.00
2018-06-12T00:56:40.043Z,19.00
2018-06-12T00:59:08.340Z,19.00
2018-06-12T01:01:36.505Z,19.00
2018-06-12T01:04:04.763Z,19.00
2018-06-12T01:06:33.054Z,18.90
2018-06-12T01:09:01.295Z,18.80
2018-06-12T01:11:29.558Z,18.80
2018-06-12T01:13:57.794Z,18.90
2018-06-12T01:16:26.077Z,18.80
2018-06-12T01:18:54.275Z,18.70
2018-06-12T01:21:22.610Z,18.80
2018-06-12T01:23:50.889Z,18.80
2018-06-12T01:26:19.114Z,18.00
2018-06-12T01:28:47.404Z,17.80
2018-06-12T01:31:15.622Z,17.60
2018-06-12T01:33:43.869Z,17.60
2018-06-12T01:36:12.165Z,17.50
2018-06-12T01:38:40.449Z,17.60
2018-06-12T01:41:08.721Z,17.70
2018-06-12T01:43:36.979Z,17.70
2018-06-12T01:46:05.313Z,17.70
2018-06-12T01:48:33.583Z,17.60
2018-06-12T01:51:01.851Z,17.70
2018-06-12T01:53:30.091Z,17.70
2018-06-12T01:55:58.294Z,17.70
2018-06-12T01:58:26.558Z,17.70
2018-06-12T02:03:22.467Z,17.60
2018-06-12T02:05:50.662Z,17.60
2018-06-12T02:08:18.881Z,17.70
2018-06-12T02:10:47.090Z,17.50
2018-06-12T02:13:15.326Z,17.40
2018-06-12T02:15:43.519Z,17.40
2018-06-12T02:18:11.814Z,17.30
2018-06-12T02:20:40.098Z,17.40
2018-06-12T02:23:08.361Z,17.40
2018-06-12T02:25:36.631Z,17.50
2018-06-12T02:28:04.863Z,17.40
2018-06-12T02:30:33.051Z,17.40
2018-06-12T02:33:01.288Z,17.50
2018-06-12T02:35:29.582Z,17.40
2018-06-12T02:37:57.806Z,17.40
2018-06-12T02:40:26.060Z,17.40
2018-06-12T02:42:54.234Z,17.40
2018-06-12T02:45:22.367Z,17.30
2018-06-12T02:47:50.557Z,17.30
2018-06-12T02:50:18.805Z,17.50
2018-06-12T02:52:47.039Z,17.60
2018-06-12T02:55:15.278Z,17.70
2018-06-12T02:57:43.462Z,17.60
2018-06-12T03:00:11.713Z,17.50
2018-06-12T03:02:39.952Z,17.40
2018-06-12T03:05:08.175Z,17.50
2018-06-12T03:07:36.464Z,17.30
2018-06-12T03:10:04.746Z,17.20
2018-06-12T03:12:32.994Z,17.20
2018-06-12T03:15:01.243Z,17.10
2018-06-12T03:17:29.575Z,17.20
2018-06-12T03:19:57.823Z,17.20
2018-06-12T03:22:26.060Z,17.30
2018-06-12T03:24:54.275Z,17.40
2018-06-12T03:27:22.574Z,17.40
2018-06-12T03:29:50.875Z,17.50
2018-06-12T03:32:19.165Z,17.40
2018-06-12T03:34:47.382Z,17.40
2018-06-12T03:37:15.639Z,17.50
2018-06-12T03:39:43.874Z,17.40
2018-06-12T03:42:12.130Z,17.40
2018-06-12T03:44:40.371Z,17.20
2018-06-12T03:47:08.578Z,17.30
2018-06-12T03:49:36.884Z,17.20
2018-06-12T03:52:05.207Z,17.20
2018-06-12T03:54:33.492Z,17.20
2018-06-12T03:57:01.778Z,17.20
2018-06-12T03:59:29.987Z,17.20
2018-06-12T04:01:58.211Z,17.20
2018-06-12T04:04:26.487Z,17.10
2018-06-12T04:06:54.790Z,17.00
2018-06-12T04:09:23.068Z,17.00
2018-06-12T04:11:51.224Z,17.00
2018-06-12T04:14:19.535Z,17.00
2018-06-12T04:16:47.751Z,17.00
2018-06-12T04:19:16.045Z,17.00
2018-06-12T04:24:11.987Z,17.10
2018-06-12T04:26:40.326Z,17.10
2018-06-12T04:29:08.678Z,17.00
2018-06-12T04:31:36.940Z,17.00
2018-06-12T04:34:05.027Z,17.00
2018-06-12T04:36:33.093Z,17.00
2018-06-12T04:39:01.217Z,17.10
2018-06-12T04:41:29.262Z,17.20
2018-06-12T04:43:57.325Z,17.20
2018-06-12T04:46:25.411Z,17.10
2018-06-12T04:48:53.455Z,17.20
2018-06-12T04:51:21.525Z,17.20
2018-06-12T04:53:49.602Z,17.20
2018-06-12T04:56:17.678Z,17.10
2018-06-12T04:58:45.761Z,17.10
2018-06-12T05:01:13.809Z,17.30
2018-06-12T05:03:41.901Z,17.30
2018-06-12T05:06:09.932Z,17.30
2018-06-12T05:08:38.033Z,17.40
2018-06-12T05:11:06.147Z,17.40
2018-06-12T05:13:34.189Z,17.30
2018-06-12T05:16:02.285Z,17.30
2018-06-12T05:18:30.324Z,17.00
2018-06-12T05:20:58.409Z,17.20
2018-06-12T05:23:26.502Z,17.20
2018-06-12T05:25:54.560Z,16.90
2018-06-12T05:28:22.626Z,16.90
2018-06-12T05:30:50.685Z,17.00
2018-06-12T05:33:18.761Z,16.90
2018-06-12T05:35:46.857Z,16.90
2018-06-12T05:38:14.985Z,17.10
2018-06-12T05:40:43.062Z,17.10
2018-06-12T05:43:11.154Z,17.20
2018-06-12T05:45:39.222Z,17.20
2018-06-12T05:48:07.317Z,17.30
2018-06-12T05:50:35.358Z,17.20
2018-06-12T05:53:03.462Z,17.10
2018-06-12T05:55:31.497Z,17.20
2018-06-12T05:57:59.573Z,17.00
2018-06-12T06:00:27.646Z,17.00
2018-06-12T06:02:55.678Z,17.00
2018-06-12T06:05:23.747Z,16.90
2018-06-12T06:07:51.790Z,16.70
2018-06-12T06:10:19.926Z,16.70
2018-06-12T06:12:48.037Z,16.70
2018-06-12T06:15:16.082Z,16.60
2018-06-12T06:17:44.158Z,16.60
2018-06-12T06:20:12.214Z,16.60
2018-06-12T06:22:40.291Z,16.70
2018-06-12T06:25:08.374Z,16.70
2018-06-12T06:27:36.407Z,16.80
2018-06-12T06:30:04.484Z,16.90
2018-06-12T06:32:32.533Z,16.90
2018-06-12T06:37:28.239Z,16.60
2018-06-12T06:39:56.309Z,16.70
2018-06-12T06:42:24.364Z,16.80
2018-06-12T06:44:52.430Z,16.80
2018-06-12T06:47:20.665Z,16.60
2018-06-12T06:49:48.731Z,16.50
2018-06-12T06:52:16.816Z,16.20
2018-06-12T06:54:44.866Z,16.10
2018-06-12T06:57:12.930Z,15.80
2018-06-12T06:59:40.997Z,15.40
2018-06-12T07:02:09.075Z,15.40
2018-06-12T07:04:37.125Z,15.40
2018-06-12T07:07:05.206Z,15.40
2018-06-12T07:09:33.265Z,15.30
2018-06-12T07:12:01.317Z,15.30
2018-06-12T07:14:29.436Z,15.30
2018-06-12T07:19:43.202Z,15.40
2018-06-12T07:22:11.261Z,15.60
2018-06-12T07:24:39.346Z,15.70
2018-06-12T07:27:07.381Z,15.70
2018-06-12T07:29:35.454Z,15.70
2018-06-12T07:32:03.509Z,15.80
2018-06-12T07:34:31.581Z,15.80
2018-06-12T07:36:59.780Z,15.90
2018-06-12T07:39:27.841Z,16.00
2018-06-12T07:41:55.987Z,16.10
2018-06-12T07:44:24.059Z,16.20
2018-06-12T07:46:52.119Z,16.20
2018-06-12T07:49:20.204Z,16.10
2018-06-12T07:51:48.237Z,16.30
2018-06-12T07:54:16.345Z,16.40
2018-06-12T07:56:44.391Z,16.40
2018-06-12T07:59:12.497Z,16.40
2018-06-12T08:01:40.598Z,16.40
2018-06-12T08:04:08.846Z,16.60
2018-06-12T08:06:36.930Z,16.50
2018-06-12T08:09:06.642Z,16.50
2018-06-12T08:11:34.713Z,16.60
2018-06-12T08:14:02.802Z,16.60
2018-06-12T08:16:30.869Z,16.80
2018-06-12T08:18:58.938Z,16.80
2018-06-12T08:21:26.965Z,16.80
2018-06-12T08:23:55.089Z,16.80
2018-06-12T08:26:23.207Z,17.00
2018-06-12T08:28:51.266Z,17.00
2018-06-12T08:31:19.360Z,17.00
2018-06-12T08:33:47.470Z,16.80
2018-06-12T08:36:15.537Z,16.90
2018-06-12T08:38:43.617Z,16.80
2018-06-12T08:41:15.674Z,16.90
2018-06-12T08:43:43.857Z,17.00
2018-06-12T08:46:11.920Z,17.20
2018-06-12T08:48:40.198Z,17.40
2018-06-12T08:51:16.475Z,17.40
2018-06-12T08:53:44.556Z,17.60
2018-06-12T08:56:12.657Z,17.40
2018-06-12T08:58:40.749Z,17.40
2018-06-12T09:01:14.330Z,17.40
2018-06-12T09:03:42.374Z,17.50
2018-06-12T09:06:10.457Z,17.50
2018-06-12T09:08:38.554Z,17.70
2018-06-12T09:11:06.645Z,17.70
2018-06-12T09:13:46.259Z,17.50
2018-06-12T09:16:14.364Z,17.50
2018-06-12T09:18:42.456Z,17.50
2018-06-12T09:21:10.570Z,17.40
2018-06-12T09:23:38.610Z,17.60
2018-06-12T09:26:06.721Z,17.70
2018-06-12T09:28:34.785Z,17.80
2018-06-12T09:31:02.865Z,18.00
2018-06-12T09:33:30.920Z,18.10
2018-06-12T09:36:05.326Z,18.30
2018-06-12T09:38:33.430Z,18.30
2018-06-12T09:41:01.478Z,18.20
2018-06-12T09:43:29.597Z,18.20
2018-06-12T09:45:57.678Z,18.20
2018-06-12T09:48:25.791Z,18.20
2018-06-12T09:50:53.877Z,18.50
2018-06-12T09:53:21.965Z,18.40
2018-06-12T09:55:50.030Z,18.40
2018-06-12T09:58:18.131Z,18.60
2018-06-12T10:00:51.505Z,18.50
2018-06-12T10:03:19.598Z,18.50
2018-06-12T10:05:47.649Z,18.70
2018-06-12T10:08:15.741Z,18.60
2018-06-12T10:10:43.818Z,18.50
2018-06-12T10:13:11.905Z,18.60
2018-06-12T10:15:40.071Z,18.70
2018-06-12T10:18:08.109Z,18.50
2018-06-12T10:20:36.189Z,18.90
2018-06-12T10:23:04.246Z,19.00
2018-06-12T10:25:32.337Z,19.10
2018-06-12T10:28:00.453Z,19.20
2018-06-12T10:30:28.613Z,19.00
2018-06-12T10:32:56.682Z,19.20
2018-06-12T10:35:24.721Z,18.90
2018-06-12T10:37:52.790Z,18.90
2018-06-12T10:40:20.902Z,18.90
2018-06-12T10:42:48.960Z,18.90
2018-06-12T10:45:17.060Z,19.00
2018-06-12T10:47:45.125Z,18.90
2018-06-12T10:50:13.202Z,18.40
2018-06-12T10:52:41.280Z,18.50
2018-06-12T10:55:09.355Z,18.50
2018-06-12T10:57:37.438Z,18.30
2018-06-12T11:00:05.524Z,18.30
2018-06-12T11:02:33.597Z,18.30
2018-06-12T11:05:01.685Z,18.60
2018-06-12T11:07:29.741Z,18.70
2018-06-12T11:09:57.851Z,18.60
2018-06-12T11:12:25.892Z,18.70
2018-06-12T11:14:53.981Z,18.70
2018-06-12T11:17:22.092Z,18.80
2018-06-12T11:19:50.158Z,18.80
2018-06-12T11:22:18.226Z,18.70
2018-06-12T11:24:46.293Z,18.90
2018-06-12T11:27:14.374Z,19.20
2018-06-12T11:29:42.564Z,19.10
2018-06-12T11:32:10.645Z,19.10
2018-06-12T11:34:38.781Z,18.90
2018-06-12T11:37:06.850Z,19.10
2018-06-12T11:39:34.929Z,18.70
2018-06-12T11:44:30.605Z,18.90
2018-06-12T11:46:58.702Z,18.80
2018-06-12T11:49:26.772Z,18.80
2018-06-12T11:51:54.852Z,18.90
2018-06-12T11:56:50.539Z,18.80
2018-06-12T11:59:18.635Z,18.90
2018-06-12T12:01:46.715Z,18.90
2018-06-12T12:04:14.766Z,18.80
2018-06-12T12:06:42.856Z,18.90
2018-06-12T12:09:11.274Z,19.00
2018-06-12T12:11:39.351Z,18.80
2018-06-12T12:14:07.440Z,18.80
2018-06-12T12:16:53.079Z,18.60
2018-06-12T12:19:21.154Z,18.90
2018-06-12T12:21:49.258Z,19.10
2018-06-12T12:24:17.417Z,19.10
2018-06-12T12:26:45.481Z,19.10
2018-06-12T12:29:13.576Z,19.20
2018-06-12T12:31:41.648Z,19.30
2018-06-12T12:34:09.709Z,19.00
2018-06-12T12:36:37.806Z,19.00
2018-06-12T12:39:07.488Z,18.90
2018-06-12T12:41:35.641Z,18.70
2018-06-12T12:44:03.690Z,18.60
2018-06-12T12:46:31.805Z,18.70
2018-06-12T12:49:00.025Z,18.70
2018-06-12T12:51:28.099Z,18.60
2018-06-12T12:53:56.196Z,18.50
2018-06-12T12:56:24.247Z,18.60
2018-06-12T12:58:52.366Z,18.70
2018-06-12T13:01:20.486Z,18.70
2018-06-12T13:03:48.566Z,18.60
2018-06-12T13:06:16.646Z,18.70
2018-06-12T13:08:44.691Z,18.70
2018-06-12T13:11:12.774Z,18.70
2018-06-12T13:13:40.861Z,18.60
2018-06-12T13:16:08.941Z,18.50
2018-06-12T13:18:37.046Z,18.50
2018-06-12T13:21:05.106Z,18.40
2018-06-12T13:23:33.181Z,18.60
2018-06-12T13:26:01.273Z,18.70
2018-06-12T13:28:29.369Z,18.70
2018-06-12T13:30:57.461Z,18.70
2018-06-12T13:33:25.514Z,18.70
2018-06-12T13:35:53.593Z,18.70
2018-06-12T13:38:21.680Z,18.70
2018-06-12T13:40:49.708Z,18.80
2018-06-12T13:43:17.809Z,18.80
2018-06-12T13:45:45.850Z,18.70
2018-06-12T13:48:15.317Z,18.70
2018-06-12T13:50:43.481Z,18.80
2018-06-12T13:53:11.541Z,18.90
2018-06-12T13:55:39.642Z,19.10
2018-06-12T13:58:07.700Z,19.10
2018-06-12T14:00:35.797Z,19.20
2018-06-12T14:03:03.876Z,19.20
2018-06-12T14:05:31.947Z,18.90
2018-06-12T14:08:00.035Z,18.90
2018-06-12T14:10:28.085Z,19.00
2018-06-12T14:12:56.203Z,19.20
2018-06-12T14:15:24.294Z,19.20
2018-06-12T14:17:52.361Z,19.00
2018-06-12T14:20:20.426Z,19.10
2018-06-12T14:22:48.506Z,19.20
2018-06-12T14:25:16.591Z,19.30
2018-06-12T14:27:44.657Z,19.30
2018-06-12T14:30:12.689Z,19.20
2018-06-12T14:32:40.758Z,19.30
2018-06-12T14:35:08.787Z,19.30
2018-06-12T14:37:36.850Z,19.20
2018-06-12T14:40:04.946Z,19.10
2018-06-12T14:42:32.985Z,19.10
2018-06-12T14:45:01.069Z,19.20
2018-06-12T14:47:29.150Z,19.20
2018-06-12T14:49:57.257Z,19.30
2018-06-12T14:52:25.329Z,19.40
2018-06-12T14:54:53.397Z,19.50
2018-06-12T14:57:21.482Z,19.60
2018-06-12T14:59:49.525Z,19.60
2018-06-12T15:02:17.602Z,19.70
2018-06-12T15:04:45.681Z,19.70
2018-06-12T15:07:13.822Z,19.70
2018-06-12T15:09:41.920Z,19.80
2018-06-12T15:12:09.966Z,19.70
2018-06-12T15:14:38.036Z,19.80
2018-06-12T15:17:06.105Z,19.80
2018-06-12T15:19:34.153Z,19.60
2018-06-12T15:22:02.294Z,19.50
2018-06-12T15:24:30.605Z,19.50
2018-06-12T15:26:58.754Z,19.60
2018-06-12T15:29:26.844Z,19.70
2018-06-12T15:32:03.074Z,19.90
2018-06-12T15:34:31.247Z,19.90
2018-06-12T15:36:59.443Z,20.10
2018-06-12T15:39:27.814Z,20.00
2018-06-12T15:41:56.026Z,19.90
2018-06-12T15:44:24.271Z,20.10
2018-06-12T15:46:52.535Z,20.10
2018-06-12T15:49:20.790Z,20.10
2018-06-12T15:51:49.111Z,20.20
2018-06-12T15:54:17.388Z,19.90
2018-06-12T15:56:45.618Z,19.90
2018-06-12T15:59:13.879Z,19.90
2018-06-12T16:01:42.215Z,20.10
2018-06-12T16:04:10.502Z,20.00
2018-06-12T16:09:07.710Z,20.00
2018-06-12T16:11:36.036Z,20.10
2018-06-12T16:14:04.209Z,20.10
2018-06-12T16:16:32.415Z,20.20
2018-06-12T16:19:00.629Z,19.90
2018-06-12T16:21:28.930Z,20.00
2018-06-12T16:23:57.123Z,19.90
2018-06-12T16:26:25.319Z,20.00
2018-06-12T16:28:53.567Z,19.90
2018-06-12T16:33:50.467Z,19.60
2018-06-12T16:36:18.718Z,19.70
2018-06-12T16:38:46.932Z,19.70
2018-06-12T16:41:15.185Z,19.70
2018-06-12T16:43:43.442Z,19.70
2018-06-12T16:46:11.739Z,19.50
2018-06-12T16:48:40.014Z,19.70
2018-06-12T16:51:08.232Z,19.60
2018-06-12T16:53:36.525Z,19.40
2018-06-12T16:56:04.746Z,19.40
2018-06-12T16:58:32.991Z,19.50
2018-06-12T17:01:01.236Z,19.50
2018-06-12T17:03:29.491Z,19.60
2018-06-12T17:05:57.763Z,19.60
2018-06-12T17:08:26.095Z,19.40
2018-06-12T17:10:54.310Z,19.40
2018-06-12T17:13:22.511Z,19.60
2018-06-12T17:15:50.742Z,19.80
2018-06-12T17:18:18.930Z,19.50
2018-06-12T17:20:47.093Z,19.40
2018-06-12T17:23:15.345Z,19.50
2018-06-12T17:25:43.593Z,19.60
2018-06-12T17:28:11.826Z,19.60
2018-06-12T17:30:40.096Z,19.70
2018-06-12T17:33:08.435Z,19.80
2018-06-12T17:35:36.702Z,19.90
2018-06-12T17:38:05.063Z,19.80
2018-06-12T17:40:33.265Z,19.60
2018-06-12T17:43:01.528Z,19.60
2018-06-12T17:45:29.655Z,19.60
2018-06-12T17:47:58.050Z,19.50
2018-06-12T17:50:36.430Z,19.30
2018-06-12T17:53:05.077Z,19.40
2018-06-12T17:55:33.715Z,19.20
2018-06-12T17:58:02.054Z,19.00
2018-06-12T18:00:30.342Z,19.00
2018-06-12T18:02:58.675Z,19.10
2018-06-12T18:05:27.978Z,19.20
2018-06-12T18:07:56.325Z,19.30
2018-06-12T18:10:24.562Z,19.30
2018-06-12T18:12:52.769Z,19.40
2018-06-12T18:15:20.866Z,19.30
2018-06-12T18:17:48.950Z,19.20
2018-06-12T18:20:21.228Z,19.20
2018-06-12T18:22:49.325Z,19.20
2018-06-12T18:25:17.774Z,19.10
2018-06-12T18:27:45.806Z,19.00
2018-06-12T18:30:13.894Z,19.00
2018-06-12T18:32:41.975Z,18.80
2018-06-12T18:35:10.076Z,18.90
2018-06-12T18:37:38.182Z,19.00
2018-06-12T18:40:06.257Z,18.80
2018-06-12T18:42:34.361Z,18.70
2018-06-12T18:45:02.506Z,18.80
2018-06-12T18:47:30.629Z,18.90
2018-06-12T18:49:58.686Z,18.90
2018-06-12T18:52:26.786Z,18.90
2018-06-12T18:54:54.858Z,19.00
2018-06-12T18:57:22.905Z,18.80
2018-06-12T18:59:50.993Z,18.60
2018-06-12T19:02:19.075Z,18.50
2018-06-12T19:04:47.162Z,18.40
2018-06-12T19:07:18.606Z,18.50
2018-06-12T19:12:14.240Z,18.50
2018-06-12T19:17:09.913Z,17.90
2018-06-12T19:19:37.957Z,17.80
2018-06-12T19:22:06.118Z,17.90
2018-06-12T19:24:34.197Z,17.90
2018-06-12T19:27:02.258Z,17.90
2018-06-12T19:29:30.334Z,18.00
2018-06-12T19:31:58.382Z,18.10
2018-06-12T19:34:26.452Z,17.90
2018-06-12T19:36:54.589Z,18.00
2018-06-12T19:39:22.626Z,18.10
2018-06-12T19:41:50.730Z,18.00
2018-06-12T19:44:18.780Z,18.00
2018-06-12T19:46:46.853Z,18.10
2018-06-12T19:49:14.914Z,17.90
2018-06-12T19:51:42.957Z,17.90
2018-06-12T19:54:11.024Z,18.00
2018-06-12T19:56:39.053Z,17.90
2018-06-12T19:59:07.150Z,17.90
2018-06-12T20:01:35.220Z,17.90
2018-06-12T20:04:03.405Z,18.00
2018-06-12T20:06:31.779Z,18.00
2018-06-12T20:08:59.818Z,17.90
2018-06-12T20:11:27.888Z,17.90
2018-06-12T20:13:56.116Z,17.90
2018-06-12T20:16:24.167Z,17.90
2018-06-12T20:19:04.411Z,17.80
2018-06-12T20:21:32.434Z,17.80
2018-06-12T20:24:00.527Z,17.70
2018-06-12T20:26:28.646Z,17.60
2018-06-12T20:28:56.717Z,17.60
2018-06-12T20:31:24.772Z,17.60
2018-06-12T20:33:52.974Z,17.60
2018-06-12T20:36:21.086Z,17.50
2018-06-12T20:38:49.147Z,17.30
2018-06-12T20:41:17.177Z,17.50
2018-06-12T20:43:45.242Z,17.50
2018-06-12T20:46:13.323Z,17.50
2018-06-12T20:48:41.436Z,17.60
2018-06-12T20:51:09.495Z,17.60
2018-06-12T20:53:37.550Z,17.60
2018-06-12T20:56:05.690Z,17.40
2018-06-12T20:58:33.693Z,17.40
2018-06-12T21:01:01.754Z,17.30
2018-06-12T21:03:29.929Z,17.00
2018-06-12T21:05:57.998Z,17.00
2018-06-12T21:08:26.072Z,17.10
2018-06-12T21:10:54.101Z,17.20
2018-06-12T21:13:22.166Z,17.30
2018-06-12T21:15:50.258Z,17.20
2018-06-12T21:18:18.389Z,17.10
2018-06-12T21:20:46.510Z,17.00
2018-06-12T21:23:14.553Z,17.10
2018-06-12T21:25:42.629Z,17.00
2018-06-12T21:28:10.705Z,17.00
2018-06-12T21:30:38.736Z,17.00
2018-06-12T21:33:06.789Z,17.10
2018-06-12T21:35:34.826Z,17.10
2018-06-12T21:38:02.894Z,17.00
2018-06-12T21:40:30.979Z,17.00
2018-06-12T21:42:59.013Z,17.00
2018-06-12T21:45:27.093Z,16.90
2018-06-12T21:47:55.149Z,17.00
2018-06-12T21:50:23.211Z,17.10
2018-06-12T21:52:51.302Z,17.10
2018-06-12T21:55:19.324Z,17.10
2018-06-12T21:57:47.417Z,17.20
2018-06-12T22:00:21.058Z,17.20
2018-06-12T22:02:49.126Z,17.10
2018-06-12T22:05:17.240Z,17.00
2018-06-12T22:07:45.305Z,16.90
2018-06-12T22:10:14.399Z,17.00
2018-06-12T22:12:42.434Z,17.00
2018-06-12T22:15:10.494Z,16.90
2018-06-12T22:17:42.921Z,16.90
2018-06-12T22:20:10.990Z,16.90
2018-06-12T22:22:39.073Z,16.90
2018-06-12T22:25:07.090Z,16.90
2018-06-12T22:27:35.178Z,16.70
2018-06-12T22:30:03.308Z,16.70
2018-06-12T22:32:31.394Z,16.70
2018-06-12T22:34:59.463Z,16.80
2018-06-12T22:37:27.598Z,16.80
2018-06-12T22:39:55.666Z,16.80
2018-06-12T22:42:23.687Z,16.70
2018-06-12T22:44:51.789Z,16.80
2018-06-12T22:47:19.858Z,16.80
2018-06-12T22:49:47.903Z,16.80
2018-06-12T22:52:15.971Z,16.80
2018-06-12T22:54:43.993Z,16.80
2018-06-12T22:57:12.070Z,16.90
2018-06-12T22:59:40.138Z,16.90
2018-06-12T23:02:08.182Z,16.90
2018-06-12T23:04:36.282Z,16.90
2018-06-12T23:07:04.374Z,16.90
2018-06-12T23:09:32.433Z,17.00
2018-06-12T23:12:00.509Z,16.90
2018-06-12T23:14:28.573Z,16.90
2018-06-12T23:16:56.648Z,16.80
2018-06-12T23:19:24.731Z,16.70
2018-06-12T23:21:59.646Z,16.80
2018-06-12T23:24:27.741Z,16.80
2018-06-12T23:26:55.862Z,16.80
2018-06-12T23:29:23.926Z,16.80
2018-06-12T23:31:51.953Z,16.80
2018-06-12T23:34:20.009Z,16.70
2018-06-12T23:36:48.066Z,16.70
2018-06-12T23:39:16.206Z,16.50
2018-06-12T23:41:44.328Z,16.50
2018-06-12T23:44:12.390Z,16.40
2018-06-12T23:46:40.477Z,16.50
2018-06-12T23:49:08.537Z,16.60
2018-06-12T23:51:36.602Z,16.50
2018-06-12T23:54:04.754Z,16.50
2018-06-12T23:56:32.821Z,16.60
2018-06-12T23:59:00.946Z,16.30
